Current Weather

Phoenix Sky Harbor Intl

Phoenix, Arizona (KPHX)

Report from: Sunday, September 25, 2022 6:51 PM MST
Current time: Sunday, September 25, 2022 7:47 PM MST

Nearby weather
Weather history
Weather forecast

Temperature36.7°C (98.1°F)
Heat index34.0°C (93.2°F)
Dew point1.7°C (35.1°F)
Winds Calm
Visibility10 mi. (16.1 km)
Clouds Sky clear
Altimeter29.83 in.Hg (1010 mB)
Relative humidity11 %
Density altitude2,666 ft. (812 m)
Sea-level pressure100.8 kPa (1008 mB, 29.77 in.Hg)
Remarks Automated weather observing station with precipitation discriminator
Flight conditions Visual Meteorological Conditions
Raw dataKPHX 260151Z 00000KT 10SM CLR 37/02 A2983 RMK AO2 SLP080 T03670017
An error has occurred. This application may no longer respond until reloaded. Reload 🗙